Time;durP1;ratioP1;P1;durP2;ratioP2;P2;SDS_P1;SDS_P2;PMS_P1;PMS_P2;Temp;Humidity;BMP_temperature;BMP_pressure;BME280_temperature;BME280_humidity;BME280_pressure;Samples;Min_cycle;Max_cycle;Signal;HPM_P1;HPM_P2
2023/02/17 00:01:14;;;;;;;66.07;29.20;;;;;;;1.85;72.25;101761.53;5034551;28;20040;-80
2023/02/17 00:03:39;;;;;;;56.42;27.27;;;;;;;1.88;72.11;101768.47;5051634;28;20041;-81
2023/02/17 00:06:07;;;;;;;54.93;26.40;;;;;;;1.88;72.24;101766.69;5057010;28;20122;-79
2023/02/17 00:08:33;;;;;;;54.15;25.90;;;;;;;1.71;72.77;101755.19;5056462;28;20033;-80
2023/02/17 00:11:00;;;;;;;57.08;27.00;;;;;;;1.77;72.59;101750.44;5032778;28;20178;-81
2023/02/17 00:13:27;;;;;;;53.35;26.05;;;;;;;1.75;72.61;101751.47;5055838;28;20092;-80
2023/02/17 00:15:53;;;;;;;58.20;26.27;;;;;;;1.82;72.61;101751.06;5034074;28;20029;-80
2023/02/17 00:18:18;;;;;;;54.10;26.38;;;;;;;1.74;72.43;101721.44;5051022;28;20064;-81
2023/02/17 00:20:44;;;;;;;50.78;25.80;;;;;;;1.74;72.48;101734.69;5055289;28;20037;-80
2023/02/17 00:23:10;;;;;;;48.17;24.10;;;;;;;1.85;72.28;101728.84;5068395;28;20036;-80
2023/02/17 00:25:37;;;;;;;49.83;24.95;;;;;;;1.82;72.14;101729.00;5066407;28;20295;-80
2023/02/17 00:28:05;;;;;;;47.58;24.92;;;;;;;1.85;72.05;101719.09;5034345;28;20072;-81
2023/02/17 00:30:32;;;;;;;42.80;23.33;;;;;;;1.89;72.05;101723.28;5038574;28;20029;-81
2023/02/17 00:32:58;;;;;;;51.17;24.50;;;;;;;1.74;72.50;101716.16;5063815;28;20107;-80
2023/02/17 00:35:23;;;;;;;45.60;23.20;;;;;;;1.80;72.49;101726.44;5068103;28;20090;-82
2023/02/17 00:37:50;;;;;;;48.38;23.45;;;;;;;1.55;72.51;101697.66;5049273;28;20146;-80
2023/02/17 00:40:16;;;;;;;52.30;25.17;;;;;;;1.66;73.06;101715.66;5047150;28;20040;-80
2023/02/17 00:42:41;;;;;;;53.65;25.85;;;;;;;1.63;73.24;101710.53;5041425;28;20818;-80
2023/02/17 00:45:08;;;;;;;45.70;24.42;;;;;;;1.69;73.01;101702.25;5031208;28;20067;-80
2023/02/17 00:47:34;;;;;;;50.53;23.98;;;;;;;1.68;73.36;101711.13;5033454;28;20110;-80
2023/02/17 00:50:00;;;;;;;50.77;24.17;;;;;;;1.67;72.89;101688.22;5065667;28;20385;-80
2023/02/17 00:52:26;;;;;;;51.30;24.38;;;;;;;1.72;73.18;101694.16;5061550;28;20029;-80
2023/02/17 00:54:51;;;;;;;54.22;25.85;;;;;;;1.86;72.71;101702.25;5059031;28;20033;-79
2023/02/17 00:57:17;;;;;;;51.53;25.80;;;;;;;1.79;73.13;101678.78;5051468;28;20037;-80
2023/02/17 00:59:43;;;;;;;52.10;25.25;;;;;;;1.84;72.91;101695.31;5059536;28;20318;-80
2023/02/17 01:02:10;;;;;;;48.17;25.27;;;;;;;1.87;72.77;101690.72;5042019;28;20041;-80
2023/02/17 01:04:37;;;;;;;48.75;24.20;;;;;;;1.86;72.52;101677.53;5069529;28;20066;-81
2023/02/17 01:07:04;;;;;;;45.33;23.25;;;;;;;1.93;72.38;101691.31;5052049;28;20044;-80
2023/02/17 01:09:29;;;;;;;45.20;23.17;;;;;;;2.01;72.11;101679.34;5060830;28;20041;-80
2023/02/17 01:11:55;;;;;;;42.90;22.57;;;;;;;1.99;71.94;101668.00;5065740;28;20064;-80
2023/02/17 01:14:20;;;;;;;46.47;22.40;;;;;;;1.93;71.83;101654.19;5054344;28;20267;-81
2023/02/17 01:16:48;;;;;;;45.10;22.58;;;;;;;2.11;71.25;101667.34;5066600;28;20024;-80
2023/02/17 01:19:19;;;;;;;52.40;22.90;;;;;;;2.23;71.09;101673.78;5053797;28;20135;-80
2023/02/17 01:21:46;;;;;;;44.50;22.73;;;;;;;2.08;71.06;101645.41;5067334;28;20035;-79
2023/02/17 01:24:11;;;;;;;41.70;21.88;;;;;;;2.27;71.04;101671.81;5051787;28;20044;-81
2023/02/17 01:26:38;;;;;;;50.00;23.60;;;;;;;2.27;70.74;101647.94;5056674;28;20138;-80
2023/02/17 01:29:03;;;;;;;;;;;;;;;2.43;70.24;101670.03;5037332;28;20033;-80
2023/02/17 01:31:30;;;;;;;45.60;22.65;;;;;;;2.37;69.90;101649.16;5070196;28;19943;-80
2023/02/17 01:33:56;;;;;;;41.95;22.60;;;;;;;2.48;69.72;101660.06;5036683;28;20039;-80
2023/02/17 01:36:22;;;;;;;40.95;20.63;;;;;;;2.44;69.50;101636.41;5068017;28;20182;-80
2023/02/17 01:38:48;;;;;;;39.45;20.50;;;;;;;2.52;69.73;101655.41;5066218;28;20047;-80
2023/02/17 01:41:15;;;;;;;40.15;19.88;;;;;;;2.54;69.51;101637.59;5065015;28;20137;-81
2023/02/17 01:43:41;;;;;;;35.47;18.83;;;;;;;2.70;68.99;101645.56;5078985;28;20036;-80
2023/02/17 01:46:08;;;;;;;;;;;;;;;2.80;68.70;101645.91;5082771;28;20041;-80
2023/02/17 01:48:48;;;;;;;45.65;21.85;;;;;;;2.68;68.32;101632.38;5078206;28;20017;-79
2023/02/17 01:51:22;;;;;;;47.70;24.35;;;;;;;2.63;68.37;101637.09;5062685;28;20116;-82
2023/02/17 01:53:58;;;;;;;43.45;23.17;;;;;;;2.62;68.35;101651.31;5038562;28;20036;-85
2023/02/17 01:56:26;;;;;;;48.75;24.05;;;;;;;2.48;68.59;101635.28;5046580;28;20099;-82
2023/02/17 01:58:58;;;;;;;52.72;26.48;;;;;;;2.48;68.61;101641.47;5037277;28;20127;-79
2023/02/17 02:01:25;;;;;;;48.72;25.60;;;;;;;2.40;69.14;101641.00;5072627;28;20090;-81
2023/02/17 02:03:51;;;;;;;55.53;24.85;;;;;;;2.36;68.98;101628.00;5049581;28;20045;-81
2023/02/17 02:06:24;;;;;;;48.92;25.23;;;;;;;2.48;68.67;101633.50;5076302;28;20044;-84
2023/02/17 02:08:56;;;;;;;50.85;25.90;;;;;;;2.51;68.63;101632.47;5081858;28;20616;-82
2023/02/17 02:11:22;;;;;;;53.15;26.35;;;;;;;2.41;68.83;101623.28;5076697;28;20036;-80
2023/02/17 02:13:48;;;;;;;56.55;26.77;;;;;;;2.28;68.95;101612.50;5070379;28;20198;-88
2023/02/17 02:16:53;;;;;;;52.75;26.08;;;;;;;2.39;68.88;101633.13;5059915;28;20517;-79
2023/02/17 02:19:37;;;;;;;52.92;26.55;;;;;;;2.33;69.05;101634.34;5052196;28;20041;-81
2023/02/17 02:22:12;;;;;;;53.58;25.52;;;;;;;2.24;69.08;101626.88;5062327;28;20036;-80
2023/02/17 02:25:11;;;;;;;49.85;25.83;;;;;;;2.32;69.43;101630.84;5069539;28;20031;-80
2023/02/17 02:28:07;;;;;;;44.63;23.52;;;;;;;2.39;69.24;101625.16;5075890;28;20115;-79
2023/02/17 02:30:51;;;;;;;51.38;25.10;;;;;;;2.31;69.58;101621.13;5063046;28;20132;-80
2023/02/17 02:33:31;;;;;;;51.58;26.38;;;;;;;2.32;69.33;101630.84;5070625;28;20039;-79
2023/02/17 02:36:42;;;;;;;49.85;26.00;;;;;;;2.10;69.78;101622.31;5070999;28;20119;-79
2023/02/17 02:39:15;;;;;;;50.63;25.10;;;;;;;2.08;69.69;101616.22;5067307;28;20483;-80
2023/02/17 02:41:45;;;;;;;48.72;25.13;;;;;;;1.95;69.89;101602.78;5075907;28;20531;-80
2023/02/17 02:44:13;;;;;;;47.20;24.05;;;;;;;2.07;69.91;101617.19;5031416;28;20063;-80
2023/02/17 02:46:40;;;;;;;46.67;23.67;;;;;;;1.97;70.06;101616.81;5056829;28;20041;-80
2023/02/17 02:49:07;;;;;;;49.97;24.77;;;;;;;1.96;69.99;101630.16;5051462;28;20476;-80
2023/02/17 02:51:42;;;;;;;50.65;25.17;;;;;;;1.88;70.28;101626.13;5067671;28;20055;-80
2023/02/17 02:54:19;;;;;;;45.22;23.05;;;;;;;1.82;70.18;101634.38;5070775;28;20036;-80
2023/02/17 02:56:51;;;;;;;46.25;23.98;;;;;;;1.77;70.64;101627.63;5077327;28;20032;-87
2023/02/17 02:59:51;;;;;;;45.90;24.05;;;;;;;1.67;71.02;101616.66;5078664;28;20055;-80
2023/02/17 03:02:31;;;;;;;44.35;22.98;;;;;;;1.59;70.98;101616.19;5030077;28;20101;-81
2023/02/17 03:04:56;;;;;;;51.85;24.35;;;;;;;1.64;70.80;101625.63;5072498;28;20036;-80
2023/02/17 03:07:32;;;;;;;47.73;24.63;;;;;;;1.48;71.25;101620.25;5071318;28;20032;-80
2023/02/17 03:09:59;;;;;;;46.10;24.17;;;;;;;1.35;71.32;101608.56;5082267;28;20040;-80
2023/02/17 03:12:25;;;;;;;47.67;24.60;;;;;;;1.48;71.38;101624.69;5067025;28;20044;-80
2023/02/17 03:14:53;;;;;;;45.63;23.75;;;;;;;1.33;71.71;101618.38;5054089;28;20449;-79
2023/02/17 03:17:19;;;;;;;44.03;23.75;;;;;;;1.36;71.84;101620.88;5064852;28;20056;-80
2023/02/17 03:19:48;;;;;;;49.37;23.23;;;;;;;1.40;71.65;101618.91;5053917;28;20067;-80
2023/02/17 03:22:20;;;;;;;48.70;23.08;;;;;;;1.37;71.21;101606.69;5078450;28;20028;-80
2023/02/17 03:24:48;;;;;;;40.30;21.45;;;;;;;1.25;71.92;101618.78;5037132;28;20274;-79
2023/02/17 03:27:15;;;;;;;41.97;21.75;;;;;;;1.24;72.40;101622.38;5070104;28;20058;-81
2023/02/17 03:29:41;;;;;;;46.17;22.88;;;;;;;1.27;72.33;101622.19;5043764;28;20467;-80
2023/02/17 03:32:07;;;;;;;44.20;22.30;;;;;;;1.29;72.53;101622.13;5063229;28;20095;-81
2023/02/17 03:34:34;;;;;;;47.40;23.48;;;;;;;1.39;72.41;101631.31;5050875;28;20643;-81
2023/02/17 03:37:00;;;;;;;42.80;21.77;;;;;;;1.40;71.94;101621.56;5073668;28;20053;-78
2023/02/17 03:39:26;;;;;;;44.55;23.38;;;;;;;1.37;72.37;101638.47;5067090;28;20032;-80
2023/02/17 03:41:52;;;;;;;44.25;22.55;;;;;;;1.43;71.98;101616.97;5054759;28;20044;-81
2023/02/17 03:44:17;;;;;;;46.17;21.90;;;;;;;1.51;71.66;101629.84;5050972;28;20531;-80
2023/02/17 03:46:44;;;;;;;44.60;22.73;;;;;;;1.47;71.38;101618.56;5062116;28;20025;-81
2023/02/17 03:49:11;;;;;;;42.13;22.85;;;;;;;1.61;71.09;101630.22;5059178;28;20040;-80
2023/02/17 03:51:36;;;;;;;43.03;22.38;;;;;;;1.52;71.27;101631.53;5069885;28;20052;-80
2023/02/17 03:54:02;;;;;;;41.70;23.23;;;;;;;1.37;71.41;101597.88;5079556;28;20081;-79
2023/02/17 03:56:28;;;;;;;48.53;24.00;;;;;;;1.57;71.18;101631.31;5069007;28;20044;-82
2023/02/17 03:58:54;;;;;;;44.60;23.08;;;;;;;1.54;71.06;101607.63;5048193;28;20028;-80
2023/02/17 04:01:20;;;;;;;48.08;23.65;;;;;;;1.63;70.95;101623.88;5050885;28;20033;-81
2023/02/17 04:03:48;;;;;;;47.90;23.38;;;;;;;1.61;71.10;101624.91;5070862;28;20521;-80
2023/02/17 04:06:14;;;;;;;48.33;23.73;;;;;;;1.56;71.33;101616.34;5054393;28;20041;-81
2023/02/17 04:08:40;;;;;;;;;;;;;;;1.55;71.67;101614.66;5052671;28;20052;-80
2023/02/17 04:11:07;;;;;;;;;;;;;;;1.46;71.95;101616.81;5072130;28;19931;-80
2023/02/17 04:13:33;;;;;;;49.22;23.27;;;;;;;1.45;71.84;101599.22;5074801;28;19913;-79
2023/02/17 04:16:03;;;;;;;53.58;25.48;;;;;;;1.48;72.03;101609.66;5087649;28;20075;-79
2023/02/17 04:18:29;;;;;;;52.10;25.80;;;;;;;1.40;72.35;101603.88;5065473;28;20127;-80
2023/02/17 04:20:55;;;;;;;52.17;26.73;;;;;;;1.48;72.15;101604.34;5054714;28;20115;-80
2023/02/17 04:23:20;;;;;;;51.03;25.55;;;;;;;1.50;71.96;101617.53;5066441;28;20059;-82
2023/02/17 04:25:48;;;;;;;52.00;26.33;;;;;;;1.44;72.10;101607.25;5072615;28;20040;-81
2023/02/17 04:28:15;;;;;;;54.92;28.48;;;;;;;1.28;72.11;101580.66;5063376;28;20060;-80
2023/02/17 04:30:45;;;;;;;55.30;27.90;;;;;;;1.45;72.11;101607.16;5068052;28;20239;-80
2023/02/17 04:33:11;;;;;;;58.70;30.65;;;;;;;1.37;71.88;101576.69;5067570;28;20060;-80
2023/02/17 04:35:41;;;;;;;62.10;29.67;;;;;;;1.48;71.73;101599.03;5064155;28;20468;-80
2023/02/17 04:38:31;;;;;;;56.58;29.83;;;;;;;1.41;71.89;101600.31;5059550;28;20308;-79
2023/02/17 04:40:58;;;;;;;60.92;29.77;;;;;;;1.49;71.72;101613.16;5058559;28;20045;-81
2023/02/17 04:43:29;;;;;;;59.10;30.52;;;;;;;1.44;71.56;101610.72;5064769;28;20035;-82
2023/02/17 04:45:55;;;;;;;63.97;30.10;;;;;;;1.54;71.56;101626.16;5065755;28;20135;-80
2023/02/17 04:48:20;;;;;;;64.07;30.05;;;;;;;1.40;71.71;101608.31;5060382;28;20040;-81
2023/02/17 04:50:49;;;;;;;63.13;30.48;;;;;;;1.41;71.86;101626.81;5047078;28;20048;-81
2023/02/17 04:53:18;;;;;;;68.07;30.23;;;;;;;1.34;71.92;101614.81;5060821;28;20041;-80
2023/02/17 04:55:43;;;;;;;62.65;30.83;;;;;;;1.44;72.05;101620.50;5069809;28;20078;-80
2023/02/17 04:58:09;;;;;;;63.67;31.08;;;;;;;1.36;72.20;101607.63;5066099;28;20036;-80
2023/02/17 05:00:37;;;;;;;63.45;30.63;;;;;;;1.39;71.92;101615.41;5054686;28;20459;-81
2023/02/17 05:03:03;;;;;;;60.80;29.73;;;;;;;1.38;72.18;101619.03;5068929;28;20107;-80
2023/02/17 05:05:31;;;;;;;62.72;29.77;;;;;;;1.31;72.04;101599.06;5087968;28;20403;-82
2023/02/17 05:07:59;;;;;;;57.15;29.20;;;;;;;1.47;72.19;101628.28;5073459;28;20078;-81
2023/02/17 05:10:24;;;;;;;55.65;28.63;;;;;;;1.56;71.91;101637.56;5072691;28;20351;-80
2023/02/17 05:12:51;;;;;;;64.72;32.92;;;;;;;1.64;71.81;101636.22;5051018;28;20036;-80
2023/02/17 05:15:16;;;;;;;69.68;33.58;;;;;;;1.62;71.85;101631.94;5067343;28;20033;-81
2023/02/17 05:17:42;;;;;;;56.97;30.77;;;;;;;1.70;71.66;101637.69;5045972;28;20411;-80
2023/02/17 05:20:08;;;;;;;66.53;30.67;;;;;;;1.72;71.60;101632.31;5065756;28;20342;-81
2023/02/17 05:22:34;;;;;;;64.05;30.33;;;;;;;1.86;70.94;101640.41;5061534;28;20173;-79
2023/02/17 05:25:00;;;;;;;60.45;30.70;;;;;;;2.01;70.68;101649.31;5086802;28;20099;-83
2023/02/17 05:27:27;;;;;;;59.53;30.42;;;;;;;2.12;70.71;101646.97;5078878;28;20127;-81
2023/02/17 05:29:54;;;;;;;62.42;31.25;;;;;;;2.09;70.15;101629.41;5055893;28;20364;-80
2023/02/17 05:32:22;;;;;;;59.35;30.67;;;;;;;2.23;69.66;101633.13;5074854;28;20048;-81
2023/02/17 05:34:49;;;;;;;92.93;41.78;;;;;;;2.36;69.44;101638.63;5069708;28;20036;-79
2023/02/17 05:37:14;;;;;;;62.20;31.52;;;;;;;2.51;68.87;101632.47;5059054;28;20442;-80
2023/02/17 05:39:40;;;;;;;61.00;29.17;;;;;;;2.83;68.36;101656.34;5052392;28;20049;-81
2023/02/17 05:42:07;;;;;;;58.77;28.30;;;;;;;2.93;67.58;101642.47;5076070;28;20074;-84
2023/02/17 05:44:47;;;;;;;62.67;28.88;;;;;;;3.04;66.89;101619.72;5070405;28;20564;-81
2023/02/17 05:47:14;;;;;;;49.53;27.25;;;;;;;3.50;66.27;101660.44;5071531;28;20049;-81
2023/02/17 05:49:40;;;;;;;62.75;27.73;;;;;;;3.70;65.46;101661.91;5070107;28;20059;-81
2023/02/17 05:52:09;;;;;;;52.87;26.33;;;;;;;3.94;64.92;101654.25;5071380;28;20043;-82
2023/02/17 05:54:39;;;;;;;54.90;28.15;;;;;;;4.17;63.97;101638.66;5067970;28;20083;-82
2023/02/17 05:57:07;;;;;;;49.17;25.95;;;;;;;4.45;63.50;101664.41;5073876;28;20038;-83
2023/02/17 05:59:35;;;;;;;60.10;28.50;;;;;;;4.44;62.70;101641.38;5087405;28;20044;-82
2023/02/17 06:02:01;;;;;;;57.50;27.40;;;;;;;4.89;61.86;101658.03;5071864;28;20384;-81
2023/02/17 06:04:26;;;;;;;59.78;29.83;;;;;;;5.24;60.50;101638.84;5066530;28;20043;-81
2023/02/17 06:06:53;;;;;;;63.88;31.08;;;;;;;6.40;57.48;101658.50;5075259;28;20067;-78
2023/02/17 06:09:20;;;;;;;68.72;32.15;;;;;;;7.05;55.45;101636.81;5069981;28;20048;-82
2023/02/17 06:11:47;;;;;;;63.00;35.78;;;;;;;7.89;52.49;101650.06;5074059;28;20033;-81
2023/02/17 06:14:13;;;;;;;68.25;36.63;;;;;;;8.88;49.62;101655.56;5071905;28;20028;-80
2023/02/17 06:16:40;;;;;;;72.88;38.67;;;;;;;9.68;47.11;101646.19;5067958;28;20044;-81
2023/02/17 06:19:05;;;;;;;67.80;36.75;;;;;;;10.44;44.59;101635.19;5063671;28;20044;-81
2023/02/17 06:21:32;;;;;;;61.85;33.72;;;;;;;11.67;41.82;101655.41;5055257;28;20118;-80
2023/02/17 06:23:58;;;;;;;64.30;34.33;;;;;;;12.60;40.42;101646.47;5052588;28;20155;-81
2023/02/17 06:26:33;;;;;;;66.50;33.80;;;;;;;13.17;38.52;101646.25;5078129;28;20071;-80
2023/02/17 06:29:01;;;;;;;;;;;;;;;13.72;37.13;101645.25;5061045;28;20433;-79
2023/02/17 06:31:26;;;;;;;60.28;34.03;;;;;;;14.00;36.66;101626.13;5077791;28;19927;-80
2023/02/17 06:33:52;;;;;;;62.42;34.65;;;;;;;14.32;35.34;101642.53;5068217;28;20119;-82
2023/02/17 06:36:19;;;;;;;61.97;35.65;;;;;;;14.50;35.02;101628.94;5076340;28;20068;-80
2023/02/17 06:38:46;;;;;;;67.40;36.53;;;;;;;14.30;34.59;101627.47;5070911;28;20032;-81
2023/02/17 06:41:18;;;;;;;58.92;36.42;;;;;;;13.97;34.36;101638.13;5076286;28;20555;-80
2023/02/17 06:43:44;;;;;;;60.70;37.08;;;;;;;13.43;35.21;101645.50;5071957;28;20028;-81
2023/02/17 06:46:10;;;;;;;;;;;;;;;13.69;35.57;101645.53;5071308;28;20033;-80
2023/02/17 06:48:36;;;;;;;64.65;35.72;;;;;;;14.46;34.21;101640.25;5087484;28;20122;-82
2023/02/17 06:51:03;;;;;;;58.38;36.85;;;;;;;14.41;33.30;101621.78;5075710;28;20028;-82
2023/02/17 06:53:30;;;;;;;57.72;33.95;;;;;;;14.75;32.94;101642.59;5042299;28;20408;-80
2023/02/17 06:55:56;;;;;;;61.63;33.70;;;;;;;15.18;32.13;101624.41;5072642;28;20055;-82
2023/02/17 06:58:24;;;;;;;51.83;33.40;;;;;;;15.49;31.51;101661.66;5070809;28;20033;-81
2023/02/17 07:00:50;;;;;;;58.60;34.53;;;;;;;17.24;29.42;101661.66;5074185;28;20036;-81
2023/02/17 07:03:17;;;;;;;62.00;32.70;;;;;;;18.41;28.05;101630.50;5055788;28;20484;-81
2023/02/17 07:05:50;;;;;;;55.65;32.00;;;;;;;18.50;26.69;101651.16;5070446;28;20087;-82
2023/02/17 07:08:19;;;;;;;68.82;33.00;;;;;;;19.70;25.94;101653.31;5069858;28;20435;-81
2023/02/17 07:10:45;;;;;;;58.47;30.92;;;;;;;20.11;24.77;101646.28;5069565;28;20087;-81
2023/02/17 07:13:12;;;;;;;51.58;28.42;;;;;;;20.45;23.83;101643.53;5079082;28;20032;-82
2023/02/17 07:15:37;;;;;;;45.97;28.95;;;;;;;19.69;24.34;101648.94;5085288;28;20118;-82
2023/02/17 07:18:04;;;;;;;;;;;;;;;19.08;25.26;101649.38;5073199;28;20395;-81
2023/02/17 07:20:30;;;;;;;53.17;28.92;;;;;;;19.63;24.71;101643.38;5074699;28;19959;-83
2023/02/17 07:22:57;;;;;;;42.88;27.20;;;;;;;20.00;24.21;101648.53;5057125;28;20040;-83
2023/02/17 07:25:23;;;;;;;41.17;28.45;;;;;;;20.06;24.14;101648.75;5071072;28;20032;-80
2023/02/17 07:27:48;;;;;;;;;;;;;;;20.00;24.02;101645.78;5089020;28;20135;-86
2023/02/17 07:30:15;;;;;;;66.20;29.33;;;;;;;20.55;23.63;101647.78;5103440;28;20391;-80
2023/02/17 07:32:41;;;;;;;41.28;27.88;;;;;;;20.29;23.60;101632.94;5071114;28;20036;-82
2023/02/17 07:35:07;;;;;;;56.28;28.45;;;;;;;21.28;22.81;101654.38;5069731;28;20109;-80
2023/02/17 07:37:34;;;;;;;56.47;29.08;;;;;;;21.36;22.63;101638.81;5062256;28;20499;-82
2023/02/17 07:40:00;;;;;;;44.95;26.92;;;;;;;21.46;22.82;101648.28;5057141;28;20074;-81
2023/02/17 07:42:28;;;;;;;48.35;28.20;;;;;;;21.25;22.69;101621.94;5055257;28;20029;-80
2023/02/17 07:44:56;;;;;;;49.08;26.30;;;;;;;21.37;22.68;101652.25;5078514;28;21345;-80
2023/02/17 07:47:21;;;;;;;40.60;25.88;;;;;;;20.93;23.04;101658.25;5078638;28;20102;-82
2023/02/17 07:49:48;;;;;;;49.65;25.60;;;;;;;21.26;22.82;101644.69;5064385;28;20128;-82
2023/02/17 07:52:17;;;;;;;58.00;25.98;;;;;;;21.47;22.56;101651.91;5078773;28;20032;-80
2023/02/17 07:54:43;;;;;;;38.70;25.42;;;;;;;21.54;22.80;101655.47;5070305;28;20415;-81
2023/02/17 07:57:09;;;;;;;38.80;24.73;;;;;;;21.61;22.51;101659.06;5070251;28;20028;-81
2023/02/17 07:59:35;;;;;;;41.75;25.25;;;;;;;21.42;22.78;101635.25;5067366;28;20067;-81
2023/02/17 08:02:03;;;;;;;41.92;24.38;;;;;;;20.91;23.12;101652.16;5079282;28;20063;-81
2023/02/17 08:04:31;;;;;;;38.45;22.52;;;;;;;21.56;22.62;101649.78;5066881;28;20578;-81
2023/02/17 08:06:57;;;;;;;38.17;23.13;;;;;;;21.45;23.03;101654.00;5069915;28;20396;-81
2023/02/17 08:15:06;;;;;;;43.13;24.02;;;;;;;20.57;23.71;101624.69;5072220;28;20075;-83
2023/02/17 08:17:32;;;;;;;46.38;24.25;;;;;;;21.38;22.92;101642.19;5055425;28;20041;-80
2023/02/17 08:19:58;;;;;;;41.60;23.85;;;;;;;20.93;23.25;101623.59;5070553;28;21015;-81
2023/02/17 08:22:24;;;;;;;33.58;20.95;;;;;;;19.06;25.12;101631.50;5078026;28;20028;-81
2023/02/17 08:24:53;;;;;;;36.13;21.55;;;;;;;19.02;25.44;101650.13;5072828;28;20068;-83
2023/02/17 08:27:20;;;;;;;43.70;22.02;;;;;;;18.86;25.80;101623.13;5078745;28;20051;-82
2023/02/17 08:29:47;;;;;;;41.30;22.50;;;;;;;18.94;26.00;101640.19;5059286;28;20040;-81
2023/02/17 08:32:13;;;;;;;38.97;21.27;;;;;;;18.25;26.72;101620.66;5070349;28;20051;-82
2023/02/17 08:34:40;;;;;;;40.00;22.75;;;;;;;17.62;27.56;101626.34;5037742;28;20570;-86
2023/02/17 08:37:11;;;;;;;34.40;23.70;;;;;;;18.00;27.29;101628.22;5075698;28;20064;-87
2023/02/17 08:39:39;;;;;;;41.03;25.85;;;;;;;18.20;27.66;101645.69;5073886;28;20533;-86
2023/02/17 08:42:11;;;;;;;53.95;29.88;;;;;;;18.27;27.32;101622.13;5077175;28;20032;-89
2023/02/17 08:44:38;;;;;;;48.05;27.83;;;;;;;19.17;26.57;101658.25;5062973;28;20052;-87
2023/02/17 08:47:06;;;;;;;;;;;;;;;18.89;26.41;101655.41;5082848;28;20098;-86
2023/02/17 08:49:38;;;;;;;43.47;25.98;;;;;;;18.89;26.32;101660.88;5072054;28;19919;-89
2023/02/17 08:52:12;;;;;;;42.95;24.77;;;;;;;19.50;25.24;101631.31;5069178;28;20040;-88
2023/02/17 08:54:38;;;;;;;40.75;26.98;;;;;;;20.55;23.81;101620.47;5071002;28;20044;-88
2023/02/17 08:57:07;;;;;;;49.25;26.02;;;;;;;20.97;23.51;101634.94;5039280;28;20135;-86
2023/02/17 08:59:36;;;;;;;47.33;23.52;;;;;;;20.33;23.86;101612.38;5081613;28;20067;-87
2023/02/17 09:02:05;;;;;;;37.55;22.20;;;;;;;19.59;25.05;101629.28;5072568;28;20069;-87
2023/02/17 09:04:34;;;;;;;42.40;22.25;;;;;;;19.43;25.30;101622.22;5088440;28;20028;-89
2023/02/17 09:07:00;;;;;;;41.70;24.13;;;;;;;19.23;25.79;101651.19;5081358;28;20113;-84
2023/02/17 09:09:29;;;;;;;42.70;24.70;;;;;;;19.40;25.58;101633.53;5072714;28;20047;-86
2023/02/17 09:11:56;;;;;;;40.13;26.13;;;;;;;18.75;26.03;101636.19;5063982;28;20025;-88
2023/02/17 09:14:25;;;;;;;41.30;25.40;;;;;;;19.03;26.21;101623.72;5057467;28;20044;-88
2023/02/17 09:16:53;;;;;;;34.83;21.33;;;;;;;19.69;24.78;101637.16;5078679;28;20028;-88
2023/02/17 09:19:21;;;;;;;35.25;20.23;;;;;;;20.43;23.96;101618.31;5070915;28;20170;-90
2023/02/17 09:21:47;;;;;;;29.48;19.80;;;;;;;20.06;23.96;101618.72;5073269;28;20043;-84
2023/02/17 09:24:16;;;;;;;33.20;20.40;;;;;;;19.49;24.42;101609.69;5068900;28;20082;-87
2023/02/17 09:26:43;;;;;;;31.27;19.55;;;;;;;20.19;24.24;101627.84;5069901;28;20067;-89
2023/02/17 09:29:09;;;;;;;27.90;19.25;;;;;;;19.61;24.80;101636.22;5070590;28;20132;-84
2023/02/17 09:31:35;;;;;;;31.00;19.52;;;;;;;18.95;25.56;101624.69;5074298;28;20481;-83
2023/02/17 09:34:02;;;;;;;42.97;20.58;;;;;;;19.69;24.77;101621.66;5053545;28;20086;-83
2023/02/17 09:36:30;;;;;;;35.22;19.48;;;;;;;19.03;25.86;101638.19;5070201;28;20054;-84
2023/02/17 09:38:55;;;;;;;28.40;19.35;;;;;;;18.80;26.01;101619.28;5061745;28;20505;-83
2023/02/17 09:41:39;;;;;;;32.53;19.27;;;;;;;18.23;26.82;101650.75;5076280;28;20035;-84
2023/02/17 09:44:06;;;;;;;27.80;18.25;;;;;;;18.37;26.66;101627.28;5072309;28;20037;-83
2023/02/17 09:46:36;;;;;;;32.67;19.00;;;;;;;19.12;26.10;101617.09;5058274;28;20040;-82
2023/02/17 09:49:06;;;;;;;35.90;24.30;;;;;;;19.51;25.56;101629.44;5075363;28;20238;-83
2023/02/17 09:51:38;;;;;;;34.47;19.77;;;;;;;19.73;25.61;101633.00;5061639;28;20102;-88
2023/02/17 09:54:08;;;;;;;28.48;19.33;;;;;;;19.52;25.54;101634.66;5069159;28;20044;-86
2023/02/17 09:57:12;;;;;;;30.50;20.13;;;;;;;18.49;26.90;101601.25;5078845;28;20115;-90
2023/02/17 09:59:47;;;;;;;32.47;20.23;;;;;;;18.54;26.78;101608.88;5066503;28;20500;-88
2023/02/17 10:02:46;;;;;;;29.20;19.10;;;;;;;18.88;26.29;101601.97;5047896;28;20056;-88
2023/02/17 10:05:46;;;;;;;28.58;18.77;;;;;;;18.55;26.66;101596.97;5064814;28;20187;-87
2023/02/17 10:08:25;;;;;;;28.65;19.45;;;;;;;17.36;28.60;101618.59;5081789;28;20101;-89
2023/02/17 10:10:59;;;;;;;29.98;19.88;;;;;;;17.99;27.64;101593.91;5078516;28;20103;-90
2023/02/17 10:13:45;;;;;;;31.15;20.58;;;;;;;19.30;26.45;101600.28;5050974;28;20061;-87
2023/02/17 10:16:19;;;;;;;33.25;20.52;;;;;;;19.17;26.79;101593.69;5045050;28;20517;-86
2023/02/17 10:18:58;;;;;;;33.05;20.13;;;;;;;19.89;25.83;101602.66;5062557;28;20127;-87
2023/02/17 10:21:51;;;;;;;31.50;20.42;;;;;;;19.04;26.62;101590.00;5077745;28;20502;-87
2023/02/17 10:24:18;;;;;;;31.25;20.55;;;;;;;19.57;26.09;101594.03;5072669;28;20039;-84
2023/02/17 10:27:27;;;;;;;31.45;21.48;;;;;;;19.70;26.04;101589.75;5038203;28;20369;-85
2023/02/17 10:30:15;;;;;;;36.25;21.00;;;;;;;19.97;25.71;101585.28;5047130;28;20369;-88
2023/02/17 10:33:20;;;;;;;32.00;20.85;;;;;;;18.49;27.36;101587.66;5073844;28;20036;-93
2023/02/17 10:36:12;;;;;;;34.22;21.38;;;;;;;17.61;28.61;101577.63;5066798;28;20459;-88
2023/02/17 10:39:36;;;;;;;33.22;21.00;;;;;;;17.32;29.38;101552.03;5093936;28;20036;-86
2023/02/17 10:41:58;;;;;;;29.10;19.70;;;;;;;17.92;28.59;101545.69;5013324;28;20478;-86
2023/02/17 10:44:24;;;;;;;;;;;;;;;18.42;28.25;101575.84;5061857;28;20077;-87
2023/02/17 10:46:51;;;;;;;35.85;21.60;;;;;;;18.41;28.19;101551.53;5067778;28;20003;-87
2023/02/17 10:49:28;;;;;;;33.22;21.15;;;;;;;18.63;27.99;101572.31;5093671;28;20024;-87
2023/02/17 10:51:54;;;;;;;35.78;21.48;;;;;;;19.12;27.12;101577.06;5092423;28;20050;-89
2023/02/17 10:54:59;;;;;;;30.90;20.58;;;;;;;19.73;26.55;101568.34;5087522;28;20028;-88
2023/02/17 10:57:28;;;;;;;30.60;20.48;;;;;;;19.50;26.25;101565.00;5095555;28;20490;-85
2023/02/17 10:59:55;;;;;;;34.72;20.90;;;;;;;19.83;26.42;101543.47;5059614;28;20039;-86
2023/02/17 11:02:38;;;;;;;30.35;21.02;;;;;;;20.90;24.58;101558.38;5075832;28;20560;-86
2023/02/17 11:05:06;;;;;;;31.80;20.90;;;;;;;21.09;23.82;101518.44;5070334;28;20031;-86
2023/02/17 11:07:40;;;;;;;29.30;20.08;;;;;;;21.29;23.48;101527.50;5071034;28;20047;-86
2023/02/17 11:10:21;;;;;;;34.03;21.90;;;;;;;21.86;22.79;101540.69;5054399;28;20116;-86
2023/02/17 11:12:48;;;;;;;37.83;21.65;;;;;;;21.28;23.62;101549.56;5035486;28;20043;-87
2023/02/17 11:15:22;;;;;;;32.47;20.80;;;;;;;23.10;21.40;101527.69;5037121;28;20509;-86
2023/02/17 11:17:49;;;;;;;28.38;19.77;;;;;;;23.63;20.72;101532.69;5080176;28;20074;-85
2023/02/17 11:20:20;;;;;;;31.63;19.35;;;;;;;24.18;20.33;101538.22;5053976;28;20067;-85
2023/02/17 11:22:58;;;;;;;30.05;20.27;;;;;;;24.49;20.05;101541.91;5079026;28;20398;-86
2023/02/17 11:25:28;;;;;;;40.65;21.50;;;;;;;23.98;20.47;101526.66;5071498;28;20032;-85
2023/02/17 11:27:58;;;;;;;29.60;20.77;;;;;;;23.11;20.80;101519.25;5070820;28;20044;-86
2023/02/17 11:30:27;;;;;;;31.25;19.95;;;;;;;21.63;22.52;101531.09;5072521;28;20039;-87
2023/02/17 11:32:55;;;;;;;34.85;20.92;;;;;;;21.43;23.05;101498.28;5072410;28;20060;-85
2023/02/17 11:35:31;;;;;;;32.40;20.17;;;;;;;21.52;22.74;101531.72;5071676;28;20035;-84